Terminal Aerodrome Forecast
Issued by NWS Memphis, TN

Home | Current Version | Previous Version | Text Only | Print | Product List | Glossary On
Versions: 1 2 3 4 5 6 7 8 9 10 11 12 13 14 15
000
FTUS44 KMEG 211730
TAFJBR
TAF
KJBR 211730Z 2118/2218 19006KT P6SM VCTS SCT040CB BKN060 BKN250
     FM220100 18004KT P6SM SCT250
     FM221300 25008KT P6SM SCT040 BKN250=

USA.gov is the U.S. government's official web portal to all federal, state and local government web resources and services.